createdAt,value
2022-09-27T00:01:13.973Z,3.47
2022-09-27T00:04:00.598Z,3.63
2022-09-27T00:06:46.050Z,2.60
2022-09-27T00:09:31.592Z,4.10
2022-09-27T00:12:16.950Z,2.93
2022-09-27T00:15:02.293Z,2.30
2022-09-27T00:17:51.964Z,4.43
2022-09-27T00:20:37.336Z,3.77
2022-09-27T00:23:22.729Z,3.10
2022-09-27T00:26:10.757Z,3.80
2022-09-27T00:28:56.448Z,3.23
2022-09-27T00:31:41.752Z,4.00
2022-09-27T00:34:27.095Z,3.03
2022-09-27T00:37:12.576Z,3.93
2022-09-27T00:39:57.897Z,2.97
2022-09-27T00:42:43.087Z,4.10
2022-09-27T00:45:28.583Z,2.77
2022-09-27T00:48:17.664Z,3.53
2022-09-27T00:51:05.560Z,3.97
2022-09-27T00:53:55.597Z,3.63
2022-09-27T00:56:43.572Z,3.60
2022-09-27T00:59:34.098Z,3.40
2022-09-27T01:02:19.839Z,3.70
2022-09-27T01:05:08.707Z,2.83
2022-09-27T01:07:56.785Z,3.47
2022-09-27T01:10:54.689Z,3.33
2022-09-27T01:14:10.345Z,3.73
2022-09-27T01:17:07.897Z,2.60
2022-09-27T01:20:21.473Z,3.00
2022-09-27T01:23:34.316Z,4.18
2022-09-27T01:26:41.656Z,4.17
2022-09-27T01:30:15.081Z,3.00
2022-09-27T01:33:10.485Z,4.17
2022-09-27T01:36:02.731Z,3.77
2022-09-27T01:38:57.108Z,3.07
2022-09-27T01:41:51.310Z,3.50
2022-09-27T01:44:52.620Z,2.90
2022-09-27T01:47:48.774Z,3.20
2022-09-27T01:51:05.033Z,2.70
2022-09-27T01:53:54.655Z,2.97
2022-09-27T01:57:11.751Z,2.50
2022-09-27T02:00:02.833Z,3.00
2022-09-27T02:03:20.772Z,2.63
2022-09-27T02:06:34.929Z,3.43
2022-09-27T02:09:58.395Z,3.65
2022-09-27T02:13:03.927Z,2.47
2022-09-27T02:16:08.485Z,2.53
2022-09-27T02:19:26.047Z,2.87
2022-09-27T02:22:36.535Z,3.10
2022-09-27T02:25:31.299Z,2.73
2022-09-27T02:28:43.620Z,2.17
2022-09-27T02:31:32.495Z,2.23
2022-09-27T02:34:24.118Z,3.07
2022-09-27T02:37:10.071Z,2.20
2022-09-27T02:39:55.897Z,2.60
2022-09-27T02:42:44.009Z,2.37
2022-09-27T02:45:37.843Z,4.23
2022-09-27T02:48:26.436Z,3.60
2022-09-27T02:51:36.413Z,1.97
2022-09-27T02:54:59.391Z,2.77
2022-09-27T02:58:13.746Z,2.97
2022-09-27T03:02:14.337Z,2.97
2022-09-27T03:05:28.156Z,2.90
2022-09-27T03:08:14.733Z,5.43
2022-09-27T03:11:00.519Z,3.77
2022-09-27T03:14:07.268Z,5.13
2022-09-27T03:16:54.672Z,4.33
2022-09-27T03:19:58.802Z,3.70
2022-09-27T03:23:04.008Z,3.13
2022-09-27T03:25:49.863Z,3.73
2022-09-27T03:28:36.427Z,4.33
2022-09-27T03:31:22.226Z,3.90
2022-09-27T03:34:33.882Z,4.83
2022-09-27T03:37:19.285Z,3.70
2022-09-27T03:40:05.559Z,4.27
2022-09-27T03:42:51.247Z,4.60
2022-09-27T03:45:37.461Z,4.37
2022-09-27T03:48:28.298Z,6.47
2022-09-27T03:51:13.869Z,4.63
2022-09-27T03:53:59.355Z,4.43
2022-09-27T03:56:45.064Z,4.87
2022-09-27T03:59:31.415Z,4.93
2022-09-27T04:02:35.505Z,5.33
2022-09-27T04:05:43.966Z,6.13
2022-09-27T04:08:34.458Z,4.50
2022-09-27T04:11:20.263Z,7.17
2022-09-27T04:14:06.134Z,4.23
2022-09-27T04:16:59.213Z,6.75
2022-09-27T04:20:07.788Z,3.27
2022-09-27T04:22:55.124Z,3.60
2022-09-27T04:25:40.564Z,5.87
2022-09-27T04:28:54.413Z,6.30
2022-09-27T04:31:40.722Z,3.47
2022-09-27T04:34:57.077Z,3.13
2022-09-27T04:37:46.665Z,3.07
2022-09-27T04:40:35.554Z,5.07
2022-09-27T04:43:21.454Z,6.40
2022-09-27T04:46:07.114Z,4.17
2022-09-27T04:48:52.511Z,3.57
2022-09-27T04:51:38.412Z,5.20
2022-09-27T04:54:24.136Z,5.50
2022-09-27T04:57:18.708Z,4.03
2022-09-27T05:00:05.122Z,6.10
2022-09-27T05:02:50.950Z,3.57
2022-09-27T05:05:55.674Z,3.27
2022-09-27T05:08:40.917Z,4.77
2022-09-27T05:11:46.495Z,4.00
2022-09-27T05:14:35.012Z,6.17
2022-09-27T05:17:26.618Z,3.50
2022-09-27T05:20:30.816Z,4.17
2022-09-27T05:23:44.782Z,3.73
2022-09-27T05:26:33.226Z,3.67
2022-09-27T05:29:18.779Z,5.03
2022-09-27T05:32:14.375Z,6.30
2022-09-27T05:35:00.515Z,2.87
2022-09-27T05:37:56.739Z,3.77
2022-09-27T05:40:44.636Z,4.27
2022-09-27T05:43:31.748Z,3.37
2022-09-27T05:46:19.793Z,4.63
2022-09-27T05:49:06.938Z,3.23
2022-09-27T05:51:53.096Z,3.07
2022-09-27T05:54:38.382Z,4.50
2022-09-27T05:57:23.727Z,3.03
2022-09-27T06:00:10.581Z,2.97
2022-09-27T06:03:02.621Z,3.03
2022-09-27T06:06:14.933Z,2.50
2022-09-27T06:09:11.013Z,4.30
2022-09-27T06:11:57.332Z,3.10
2022-09-27T06:14:44.031Z,4.33
2022-09-27T06:17:35.331Z,3.63
2022-09-27T06:20:27.101Z,5.33
2022-09-27T06:23:16.072Z,4.43
2022-09-27T06:26:08.062Z,3.60
2022-09-27T06:29:09.464Z,3.97
2022-09-27T06:31:59.399Z,2.83
2022-09-27T06:34:54.932Z,3.17
2022-09-27T06:37:41.200Z,3.30
2022-09-27T06:40:27.435Z,3.73
2022-09-27T06:43:34.360Z,5.13
2022-09-27T06:46:23.111Z,3.10
2022-09-27T06:49:27.696Z,3.60
2022-09-27T06:52:15.397Z,3.27
2022-09-27T06:55:01.847Z,3.00
2022-09-27T06:58:12.457Z,3.20
2022-09-27T07:01:03.558Z,3.60
2022-09-27T07:04:12.486Z,3.50
2022-09-27T07:07:10.960Z,5.80
2022-09-27T07:09:59.492Z,3.07
2022-09-27T07:12:48.810Z,6.83
2022-09-27T07:15:37.295Z,3.20
2022-09-27T07:18:28.274Z,2.67
2022-09-27T07:21:13.580Z,3.20
2022-09-27T07:23:59.246Z,4.40
2022-09-27T07:26:45.271Z,2.80
2022-09-27T07:29:32.063Z,3.70
2022-09-27T07:32:18.345Z,5.30
2022-09-27T07:35:08.084Z,2.60
2022-09-27T07:37:55.371Z,4.27
2022-09-27T07:40:41.552Z,2.53
2022-09-27T07:43:27.399Z,3.13
2022-09-27T07:46:13.809Z,3.10
2022-09-27T07:49:08.133Z,3.40
2022-09-27T07:52:20.466Z,2.67
2022-09-27T07:55:32.147Z,2.73
2022-09-27T07:58:25.702Z,2.83
2022-09-27T08:01:19.437Z,2.65
2022-09-27T08:04:05.952Z,2.17
2022-09-27T08:06:51.860Z,2.73
2022-09-27T08:09:37.583Z,2.73
2022-09-27T08:12:22.946Z,2.13
2022-09-27T08:15:08.711Z,1.90
2022-09-27T08:17:55.412Z,3.00
2022-09-27T08:21:00.747Z,1.70
2022-09-27T08:24:08.863Z,3.70
2022-09-27T08:27:13.446Z,2.17
2022-09-27T08:30:13.202Z,1.87
2022-09-27T08:33:01.123Z,3.93
2022-09-27T08:35:46.797Z,4.13
2022-09-27T08:38:32.106Z,3.23
2022-09-27T08:41:44.955Z,3.67
2022-09-27T08:44:36.769Z,3.83
2022-09-27T08:47:35.752Z,4.93
2022-09-27T08:50:40.042Z,2.97
2022-09-27T08:53:33.750Z,6.57
2022-09-27T08:56:22.782Z,2.60
2022-09-27T08:59:21.889Z,1.70
2022-09-27T09:02:27.322Z,3.00
2022-09-27T09:05:23.341Z,3.37
2022-09-27T09:08:18.919Z,1.63
2022-09-27T09:11:41.175Z,2.13
2022-09-27T09:14:45.193Z,2.33
2022-09-27T09:17:55.201Z,2.27
2022-09-27T09:21:10.696Z,1.80
2022-09-27T09:24:15.485Z,2.60
2022-09-27T09:27:23.692Z,2.03
2022-09-27T09:30:31.365Z,1.77
2022-09-27T09:33:30.106Z,2.40
2022-09-27T09:36:58.583Z,1.80
2022-09-27T09:39:54.349Z,2.30
2022-09-27T09:42:50.322Z,1.50
2022-09-27T09:45:43.092Z,1.30
2022-09-27T09:48:42.500Z,1.53
2022-09-27T09:51:38.394Z,2.30
2022-09-27T09:54:29.251Z,1.50
2022-09-27T09:57:28.797Z,1.60
2022-09-27T10:00:19.089Z,1.93
2022-09-27T10:03:08.595Z,1.55
2022-09-27T10:05:54.097Z,2.20
2022-09-27T10:08:40.525Z,1.63
2022-09-27T10:11:42.394Z,2.03
2022-09-27T10:14:33.775Z,3.03
2022-09-27T10:17:28.529Z,1.57
2022-09-27T10:20:31.681Z,1.63
2022-09-27T10:23:25.126Z,1.53
2022-09-27T10:26:33.996Z,1.20
2022-09-27T10:29:34.869Z,1.33
2022-09-27T10:32:33.702Z,1.33
2022-09-27T10:35:42.344Z,1.87
2022-09-27T10:38:37.348Z,1.93
2022-09-27T10:41:43.132Z,1.33
2022-09-27T10:44:39.010Z,2.90
2022-09-27T10:47:36.498Z,1.90
2022-09-27T10:50:59.690Z,1.33
2022-09-27T10:54:01.535Z,1.70
2022-09-27T10:57:21.512Z,1.13
2022-09-27T11:00:22.711Z,2.17
2022-09-27T11:03:16.622Z,1.77
2022-09-27T11:06:20.355Z,1.60
2022-09-27T11:09:24.405Z,1.17
2022-09-27T11:12:15.929Z,1.13
2022-09-27T11:15:07.624Z,0.93
2022-09-27T11:18:08.089Z,1.10
2022-09-27T11:21:35.139Z,1.13
2022-09-27T11:24:58.656Z,1.00
2022-09-27T11:27:55.734Z,1.00
2022-09-27T11:30:51.247Z,0.93
2022-09-27T11:34:49.150Z,1.63
2022-09-27T11:37:58.848Z,2.03
2022-09-27T11:41:00.648Z,1.00
2022-09-27T11:44:11.375Z,3.33
2022-09-27T11:47:25.210Z,1.73
2022-09-27T11:50:53.600Z,1.38
2022-09-27T11:53:57.477Z,0.70
2022-09-27T11:56:53.486Z,0.70
2022-09-27T12:00:00.287Z,1.07
2022-09-27T12:02:52.202Z,0.77
2022-09-27T12:05:57.694Z,0.83
2022-09-27T12:09:06.390Z,1.03
2022-09-27T12:12:01.395Z,0.60
2022-09-27T12:14:52.366Z,1.10
2022-09-27T12:17:43.087Z,0.70
2022-09-27T12:20:35.512Z,1.00
2022-09-27T12:23:36.377Z,1.13
2022-09-27T12:27:00.290Z,0.70
2022-09-27T12:29:47.352Z,0.80
2022-09-27T12:32:49.687Z,0.97
2022-09-27T12:35:47.599Z,0.77
2022-09-27T12:38:58.856Z,0.90
2022-09-27T12:41:50.427Z,0.87
2022-09-27T12:44:50.932Z,2.75
2022-09-27T12:47:41.338Z,1.00
2022-09-27T12:50:44.611Z,0.97
2022-09-27T12:53:45.101Z,0.60
2022-09-27T12:56:30.905Z,1.17
2022-09-27T12:59:55.460Z,1.53
2022-09-27T13:03:13.969Z,0.97
2022-09-27T13:08:59.911Z,1.33
2022-09-27T13:12:11.690Z,0.60
2022-09-27T13:15:31.503Z,1.47
2022-09-27T13:18:30.237Z,2.37
2022-09-27T13:21:51.248Z,1.10
2022-09-27T13:24:47.281Z,5.17
2022-09-27T13:27:52.272Z,1.30
2022-09-27T13:30:45.195Z,1.27
2022-09-27T13:33:49.737Z,1.00
2022-09-27T13:36:44.770Z,1.47
2022-09-27T13:39:31.152Z,1.00
2022-09-27T13:43:17.730Z,1.57
2022-09-27T13:46:20.660Z,1.10
2022-09-27T13:49:26.296Z,2.77
2022-09-27T13:52:34.123Z,0.83
2022-09-27T13:55:40.388Z,0.70
2022-09-27T13:58:53.507Z,0.97
2022-09-27T14:02:09.713Z,2.13
2022-09-27T14:04:58.269Z,2.17
2022-09-27T14:07:44.947Z,2.53
2022-09-27T14:10:35.296Z,2.63
2022-09-27T14:13:24.517Z,2.03
2022-09-27T14:19:17.949Z,1.93
2022-09-27T14:22:07.241Z,1.07
2022-09-27T14:24:58.260Z,2.77
2022-09-27T14:27:54.639Z,2.67
2022-09-27T14:31:17.993Z,5.10
2022-09-27T14:34:29.648Z,10.63
2022-09-27T14:37:26.273Z,5.10
2022-09-27T14:40:21.719Z,7.15
2022-09-27T14:43:11.976Z,5.90
2022-09-27T14:49:55.740Z,6.27
2022-09-27T14:52:41.153Z,3.43
2022-09-27T14:55:29.292Z,9.40
2022-09-27T14:58:29.751Z,5.30
2022-09-27T15:01:20.818Z,4.37
2022-09-27T15:04:12.816Z,3.33
2022-09-27T15:07:01.615Z,3.57
2022-09-27T15:09:47.366Z,6.20
2022-09-27T15:12:33.794Z,4.17
2022-09-27T15:15:25.995Z,4.43
2022-09-27T15:18:40.956Z,5.83
2022-09-27T15:21:35.612Z,4.43
2022-09-27T15:24:44.158Z,5.63
2022-09-27T15:27:29.503Z,3.80
2022-09-27T15:30:19.590Z,4.10
2022-09-27T15:33:06.721Z,4.60
2022-09-27T15:35:55.144Z,7.00
2022-09-27T15:38:47.445Z,5.03
2022-09-27T15:42:10.739Z,2.23
2022-09-27T15:44:57.941Z,5.30
2022-09-27T15:47:48.813Z,5.30
2022-09-27T15:50:35.077Z,2.27
2022-09-27T15:53:35.844Z,3.40
2022-09-27T15:56:21.220Z,3.87
2022-09-27T15:59:12.077Z,2.83
2022-09-27T16:02:01.971Z,3.87
2022-09-27T16:04:50.683Z,4.22
2022-09-27T16:07:36.087Z,4.57
2022-09-27T16:10:25.103Z,3.43
2022-09-27T16:13:10.594Z,4.37
2022-09-27T16:15:56.065Z,3.03
2022-09-27T16:18:41.667Z,3.87
2022-09-27T16:21:27.120Z,2.40
2022-09-27T16:24:12.506Z,2.60
2022-09-27T16:26:59.358Z,5.57
2022-09-27T16:29:45.083Z,3.03
2022-09-27T16:32:30.605Z,3.03
2022-09-27T16:35:18.336Z,3.93
2022-09-27T16:38:04.117Z,7.17
2022-09-27T16:40:49.838Z,2.63
2022-09-27T16:43:35.111Z,4.03
2022-09-27T16:46:20.493Z,3.47
2022-09-27T16:49:25.721Z,6.53
2022-09-27T16:52:11.100Z,4.03
2022-09-27T16:54:56.498Z,4.20
2022-09-27T16:57:41.790Z,4.37
2022-09-27T17:00:27.868Z,5.53
2022-09-27T17:03:13.720Z,4.27
2022-09-27T17:06:04.112Z,6.07
2022-09-27T17:08:49.740Z,5.50
2022-09-27T17:11:35.723Z,3.20
2022-09-27T17:14:21.146Z,4.57
2022-09-27T17:17:07.487Z,4.97
2022-09-27T17:19:52.825Z,6.10
2022-09-27T17:22:38.225Z,3.47
2022-09-27T17:25:23.613Z,3.97
2022-09-27T17:28:08.801Z,2.70
2022-09-27T17:30:56.430Z,3.33
2022-09-27T17:33:45.330Z,3.43
2022-09-27T17:36:34.561Z,2.23
2022-09-27T17:39:22.352Z,3.43
2022-09-27T17:42:07.927Z,3.53
2022-09-27T17:44:54.549Z,3.37
2022-09-27T17:47:58.499Z,3.07
2022-09-27T17:53:36.000Z,4.97
2022-09-27T17:56:22.940Z,2.10
2022-09-27T17:59:09.716Z,3.70
2022-09-27T18:01:55.497Z,4.13
2022-09-27T18:04:41.118Z,2.77
2022-09-27T18:07:26.595Z,3.43
2022-09-27T18:10:12.150Z,4.20
2022-09-27T18:12:57.526Z,4.03
2022-09-27T18:15:43.411Z,2.27
2022-09-27T18:18:28.692Z,3.30
2022-09-27T18:21:22.028Z,1.80
2022-09-27T18:24:08.481Z,4.07
2022-09-27T18:26:55.996Z,2.30
2022-09-27T18:29:42.249Z,6.43
2022-09-27T18:32:27.675Z,3.07
2022-09-27T18:35:13.269Z,3.27
2022-09-27T18:37:59.051Z,2.70
2022-09-27T18:40:56.302Z,1.40
2022-09-27T18:43:44.678Z,1.97
2022-09-27T18:46:36.451Z,2.00
2022-09-27T18:49:26.935Z,2.70
2022-09-27T18:52:13.499Z,2.93
2022-09-27T18:54:59.503Z,1.97
2022-09-27T18:57:45.191Z,3.10
2022-09-27T19:00:31.395Z,2.03
2022-09-27T19:03:16.685Z,2.03
2022-09-27T19:06:09.836Z,2.03
2022-09-27T19:08:58.586Z,3.88
2022-09-27T19:11:44.606Z,1.77
2022-09-27T19:14:29.863Z,2.47
2022-09-27T19:17:15.116Z,1.37
2022-09-27T19:20:00.454Z,3.00
2022-09-27T19:22:45.845Z,2.13
2022-09-27T19:25:31.474Z,2.37
2022-09-27T19:28:17.093Z,1.37
2022-09-27T19:31:16.483Z,2.20
2022-09-27T19:34:02.345Z,1.27
2022-09-27T19:36:47.564Z,2.07
2022-09-27T19:39:32.751Z,1.77
2022-09-27T19:42:17.936Z,1.73
2022-09-27T19:45:06.800Z,1.80
2022-09-27T19:47:56.203Z,1.97
2022-09-27T19:50:41.886Z,1.37
2022-09-27T19:53:32.088Z,1.50
2022-09-27T19:56:18.426Z,1.50
2022-09-27T19:59:07.102Z,1.20
2022-09-27T20:01:52.655Z,2.13
2022-09-27T20:04:38.169Z,2.87
2022-09-27T20:07:23.860Z,1.53
2022-09-27T20:10:09.741Z,3.67
2022-09-27T20:12:54.965Z,1.53
2022-09-27T20:15:40.398Z,1.47
2022-09-27T20:18:25.557Z,1.33
2022-09-27T20:21:11.573Z,2.50
2022-09-27T20:23:57.760Z,0.93
2022-09-27T20:26:44.639Z,1.00
2022-09-27T20:29:31.243Z,1.17
2022-09-27T20:32:27.268Z,1.00
2022-09-27T20:35:13.803Z,0.87
2022-09-27T20:37:59.019Z,1.47
2022-09-27T20:40:52.751Z,1.73
2022-09-27T20:43:39.276Z,1.80
2022-09-27T20:46:25.013Z,2.70
2022-09-27T20:49:14.757Z,1.50
2022-09-27T20:52:00.324Z,1.10
2022-09-27T20:54:46.021Z,1.43
2022-09-27T20:57:53.447Z,0.80
2022-09-27T21:00:37.053Z,2.47
2022-09-27T21:03:22.398Z,2.30
2022-09-27T21:06:07.672Z,1.13
2022-09-27T21:08:54.545Z,1.40
2022-09-27T21:11:40.061Z,2.13
2022-09-27T21:14:25.335Z,1.17
2022-09-27T21:17:10.669Z,1.57
2022-09-27T21:19:55.967Z,1.37
2022-09-27T21:22:41.205Z,1.20
2022-09-27T21:25:26.596Z,1.20
2022-09-27T21:28:11.810Z,1.43
2022-09-27T21:30:57.357Z,1.10
2022-09-27T21:33:43.288Z,0.93
2022-09-27T21:36:37.943Z,1.03
2022-09-27T21:39:23.540Z,2.63
2022-09-27T21:42:08.968Z,1.53
2022-09-27T21:44:54.216Z,1.37
2022-09-27T21:47:39.537Z,1.37
2022-09-27T21:50:24.680Z,2.33
2022-09-27T21:53:10.005Z,2.33
2022-09-27T21:55:55.823Z,3.40
2022-09-27T21:58:41.895Z,1.43
2022-09-27T22:01:29.964Z,1.00
2022-09-27T22:04:15.604Z,1.30
2022-09-27T22:07:00.975Z,1.57
2022-09-27T22:09:46.224Z,1.23
2022-09-27T22:12:31.545Z,1.60
2022-09-27T22:15:16.944Z,1.67
2022-09-27T22:18:02.513Z,1.33
2022-09-27T22:20:48.214Z,1.47
2022-09-27T22:23:33.969Z,1.20
2022-09-27T22:26:26.711Z,1.03
2022-09-27T22:29:12.276Z,1.10
2022-09-27T22:31:57.887Z,1.47
2022-09-27T22:34:43.239Z,1.87
2022-09-27T22:37:28.559Z,0.97
2022-09-27T22:40:14.710Z,1.33
2022-09-27T22:42:59.961Z,1.67
2022-09-27T22:45:45.149Z,1.23
2022-09-27T22:48:31.737Z,1.40
2022-09-27T22:51:17.804Z,1.40
2022-09-27T22:54:03.084Z,1.37
2022-09-27T22:56:48.316Z,1.20
2022-09-27T22:59:33.633Z,1.03
2022-09-27T23:02:18.933Z,1.30
2022-09-27T23:05:04.463Z,2.37
2022-09-27T23:07:52.430Z,1.37
2022-09-27T23:10:38.927Z,1.30
2022-09-27T23:13:24.179Z,1.23
2022-09-27T23:16:12.379Z,1.50
2022-09-27T23:18:57.976Z,1.47
2022-09-27T23:21:43.291Z,2.40
2022-09-27T23:24:28.646Z,1.80
2022-09-27T23:27:32.350Z,1.40
2022-09-27T23:33:04.595Z,1.47
2022-09-27T23:35:50.336Z,1.23
2022-09-27T23:38:37.352Z,1.10
2022-09-27T23:41:22.768Z,1.97
2022-09-27T23:44:08.157Z,1.83
2022-09-27T23:46:59.597Z,1.27
2022-09-27T23:49:44.965Z,0.80
2022-09-27T23:52:30.139Z,1.00
2022-09-27T23:55:15.831Z,1.67
2022-09-27T23:58:01.838Z,1.03
